Terminal Aerodrome Forecast
Issued by NWS

Home | Current Version | Previous Version | Graphics & Text | Print | Product List | Glossary On
Versions: 1 2 3 4 5 6 7 8 9 10 11 12 13 14 15 16 17 18 19 20 21 22 23 24 25 26 27 28
000
FTUS43 KBIS 230922 AAB
TAFJMS
TAF AMD
KJMS 230922Z 2309/2406 26004KT P6SM BKN004 OVC007
      TEMPO 2309/2313 22004KT 4SM BR SCT006
     FM231300 19005KT P6SM SCT090 SCT250
     FM231600 22007KT P6SM FEW300
     FM240100 23011KT P6SM SCT120=

USA.gov is the U.S. government's official web portal to all federal, state and local government web resources and services.